createdAt,value
2023-02-03T00:01:49.579Z,2.25
2023-02-03T00:04:19.484Z,2.90
2023-02-03T00:06:47.425Z,2.03
2023-02-03T00:09:15.286Z,1.90
2023-02-03T00:11:41.757Z,2.17
2023-02-03T00:14:11.427Z,2.35
2023-02-03T00:16:39.226Z,2.05
2023-02-03T00:19:06.658Z,1.80
2023-02-03T00:21:33.430Z,2.20
2023-02-03T00:23:59.781Z,1.65
2023-02-03T00:26:29.000Z,1.88
2023-02-03T00:28:56.336Z,2.00
2023-02-03T00:31:25.373Z,1.60
2023-02-03T00:33:57.802Z,2.58
2023-02-03T00:36:27.888Z,2.08
2023-02-03T00:38:54.802Z,1.67
2023-02-03T00:41:21.824Z,1.85
2023-02-03T00:43:50.052Z,2.35
2023-02-03T00:46:17.415Z,1.85
2023-02-03T00:48:44.708Z,2.15
2023-02-03T00:51:16.275Z,1.90
2023-02-03T00:53:43.688Z,1.55
2023-02-03T00:56:12.697Z,1.88
2023-02-03T00:58:42.932Z,2.20
2023-02-03T01:01:10.644Z,2.17
2023-02-03T01:03:38.552Z,2.08
2023-02-03T01:06:18.054Z,2.10
2023-02-03T01:08:46.175Z,2.47
2023-02-03T01:11:21.238Z,2.15
2023-02-03T01:13:51.815Z,1.80
2023-02-03T01:16:20.989Z,1.90
2023-02-03T01:18:51.898Z,2.17
2023-02-03T01:21:24.328Z,1.50
2023-02-03T01:23:52.641Z,2.05
2023-02-03T01:26:21.804Z,2.00
2023-02-03T01:28:59.299Z,1.70
2023-02-03T01:31:29.471Z,1.77
2023-02-03T01:33:57.449Z,2.00
2023-02-03T01:36:30.393Z,1.52
2023-02-03T01:38:57.691Z,1.42
2023-02-03T01:41:28.589Z,1.30
2023-02-03T01:44:01.270Z,1.45
2023-02-03T01:46:39.251Z,1.38
2023-02-03T01:49:09.201Z,1.55
2023-02-03T01:51:40.135Z,1.83
2023-02-03T01:54:11.191Z,1.90
2023-02-03T01:56:42.296Z,1.38
2023-02-03T01:59:09.026Z,1.23
2023-02-03T02:01:37.066Z,1.80
2023-02-03T02:04:04.877Z,1.20
2023-02-03T02:06:31.323Z,1.70
2023-02-03T02:09:00.681Z,1.42
2023-02-03T02:11:28.151Z,1.30
2023-02-03T02:13:59.004Z,1.17
2023-02-03T02:16:44.814Z,0.88
2023-02-03T02:19:45.215Z,1.00
2023-02-03T02:22:21.660Z,1.00
2023-02-03T02:25:06.786Z,1.00
2023-02-03T02:27:53.611Z,1.05
2023-02-03T02:30:44.317Z,0.80
2023-02-03T02:33:15.693Z,1.00
2023-02-03T02:35:43.002Z,0.95
2023-02-03T02:38:35.023Z,1.20
2023-02-03T02:41:23.830Z,0.90
2023-02-03T02:44:20.036Z,0.90
2023-02-03T02:46:50.409Z,1.00
2023-02-03T02:49:33.163Z,0.80
2023-02-03T02:52:03.677Z,0.98
2023-02-03T02:54:31.987Z,0.80
2023-02-03T02:57:01.811Z,0.95
2023-02-03T02:59:29.495Z,1.00
2023-02-03T03:01:56.603Z,1.02
2023-02-03T03:04:27.799Z,0.85
2023-02-03T03:07:01.085Z,1.00
2023-02-03T03:12:14.811Z,0.93
2023-02-03T03:14:45.237Z,1.55
2023-02-03T03:17:16.337Z,1.27
2023-02-03T03:19:50.442Z,0.90
2023-02-03T03:22:20.146Z,0.80
2023-02-03T03:24:50.640Z,0.85
2023-02-03T03:27:28.690Z,0.80
2023-02-03T03:30:02.451Z,1.40
2023-02-03T03:32:32.758Z,1.33
2023-02-03T03:35:01.574Z,1.20
2023-02-03T03:37:37.048Z,1.05
2023-02-03T03:40:16.969Z,0.85
2023-02-03T03:43:12.320Z,1.40
2023-02-03T03:46:03.889Z,0.80
2023-02-03T03:48:48.722Z,1.50
2023-02-03T03:51:30.806Z,0.95
2023-02-03T03:54:03.685Z,1.02
2023-02-03T03:56:44.912Z,1.38
2023-02-03T03:59:14.854Z,1.33
2023-02-03T04:01:42.671Z,1.40
2023-02-03T04:04:11.012Z,0.95
2023-02-03T04:06:39.140Z,0.80
2023-02-03T04:09:06.152Z,1.10
2023-02-03T04:11:51.189Z,1.10
2023-02-03T04:14:17.802Z,0.70
2023-02-03T04:16:44.180Z,0.80
2023-02-03T04:19:10.618Z,0.68
2023-02-03T04:21:37.037Z,0.90
2023-02-03T04:24:03.629Z,0.73
2023-02-03T04:26:30.186Z,1.20
2023-02-03T04:28:56.590Z,0.90
2023-02-03T04:31:23.109Z,1.08
2023-02-03T04:33:49.626Z,0.90
2023-02-03T04:36:16.016Z,1.23
2023-02-03T04:38:42.390Z,0.55
2023-02-03T04:41:08.739Z,1.00
2023-02-03T04:43:35.126Z,0.70
2023-02-03T04:46:01.607Z,1.45
2023-02-03T04:48:28.180Z,0.70
2023-02-03T04:50:54.504Z,0.70
2023-02-03T04:53:20.913Z,0.80
2023-02-03T04:55:49.597Z,0.77
2023-02-03T04:58:16.232Z,0.70
2023-02-03T05:00:42.623Z,0.80
2023-02-03T05:03:09.111Z,0.90
2023-02-03T05:05:35.578Z,0.90
2023-02-03T05:08:01.936Z,0.70
2023-02-03T05:10:28.601Z,0.90
2023-02-03T05:12:55.155Z,1.30
2023-02-03T05:15:21.810Z,1.40
2023-02-03T05:17:48.389Z,1.00
2023-02-03T05:20:14.929Z,1.02
2023-02-03T05:22:44.757Z,1.33
2023-02-03T05:25:11.544Z,0.90
2023-02-03T05:27:38.747Z,0.93
2023-02-03T05:30:06.584Z,0.73
2023-02-03T05:32:33.079Z,0.90
2023-02-03T05:34:59.435Z,1.00
2023-02-03T05:37:25.930Z,1.00
2023-02-03T05:39:52.300Z,1.00
2023-02-03T05:42:18.718Z,1.00
2023-02-03T05:44:45.085Z,1.00
2023-02-03T05:47:11.502Z,1.00
2023-02-03T05:49:37.866Z,1.05
2023-02-03T05:52:04.468Z,0.98
2023-02-03T05:54:31.613Z,1.00
2023-02-03T05:56:58.105Z,1.00
2023-02-03T05:59:24.450Z,1.45
2023-02-03T06:01:50.842Z,0.90
2023-02-03T06:04:17.413Z,1.23
2023-02-03T06:06:43.802Z,1.48
2023-02-03T06:09:10.309Z,1.45
2023-02-03T06:11:36.813Z,1.10
2023-02-03T06:14:03.833Z,1.10
2023-02-03T06:16:30.355Z,1.20
2023-02-03T06:19:00.862Z,1.15
2023-02-03T06:21:28.226Z,0.90
2023-02-03T06:23:55.848Z,1.52
2023-02-03T06:26:22.688Z,1.30
2023-02-03T06:28:49.074Z,2.05
2023-02-03T06:31:15.753Z,0.90
2023-02-03T06:33:42.312Z,0.80
2023-02-03T06:36:09.091Z,1.40
2023-02-03T06:38:35.472Z,1.42
2023-02-03T06:41:01.884Z,0.75
2023-02-03T06:43:28.324Z,0.90
2023-02-03T06:45:54.795Z,1.23
2023-02-03T06:48:21.172Z,1.35
2023-02-03T06:50:48.807Z,1.60
2023-02-03T06:53:15.437Z,1.40
2023-02-03T06:55:41.948Z,1.30
2023-02-03T06:58:08.500Z,1.60
2023-02-03T07:00:34.970Z,1.20
2023-02-03T07:03:02.493Z,1.00
2023-02-03T07:05:29.353Z,1.55
2023-02-03T07:07:56.067Z,1.30
2023-02-03T07:10:22.898Z,1.63
2023-02-03T07:12:50.722Z,1.20
2023-02-03T07:15:17.997Z,1.10
2023-02-03T07:17:47.053Z,1.50
2023-02-03T07:20:13.959Z,1.38
2023-02-03T07:22:43.740Z,0.70
2023-02-03T07:25:10.144Z,1.40
2023-02-03T07:27:36.641Z,1.42
2023-02-03T07:30:04.563Z,1.45
2023-02-03T07:32:32.291Z,1.35
2023-02-03T07:35:01.189Z,1.17
2023-02-03T07:37:27.680Z,1.33
2023-02-03T07:39:54.059Z,1.35
2023-02-03T07:42:20.477Z,1.88
2023-02-03T07:44:50.009Z,1.23
2023-02-03T07:47:16.453Z,1.33
2023-02-03T07:49:43.019Z,1.23
2023-02-03T07:52:09.535Z,1.10
2023-02-03T07:54:35.979Z,1.45
2023-02-03T07:57:02.390Z,1.23
2023-02-03T07:59:28.776Z,1.13
2023-02-03T08:01:56.187Z,1.20
2023-02-03T08:04:24.301Z,1.13
2023-02-03T08:06:50.879Z,1.88
2023-02-03T08:09:17.309Z,1.25
2023-02-03T08:11:43.995Z,1.20
2023-02-03T08:14:10.369Z,2.92
2023-02-03T08:16:36.836Z,1.40
2023-02-03T08:19:03.361Z,1.38
2023-02-03T08:21:29.847Z,1.10
2023-02-03T08:23:56.227Z,1.20
2023-02-03T08:26:22.964Z,1.17
2023-02-03T08:28:50.158Z,1.35
2023-02-03T08:31:16.728Z,1.23
2023-02-03T08:33:43.484Z,1.35
2023-02-03T08:36:11.304Z,1.38
2023-02-03T08:38:39.296Z,1.17
2023-02-03T08:41:15.040Z,1.60
2023-02-03T08:43:41.592Z,1.52
2023-02-03T08:46:09.739Z,1.30
2023-02-03T08:48:36.502Z,0.95
2023-02-03T08:51:09.168Z,1.05
2023-02-03T08:53:35.546Z,1.20
2023-02-03T08:56:06.372Z,0.95
2023-02-03T08:58:33.336Z,1.35
2023-02-03T09:01:14.421Z,0.85
2023-02-03T09:03:42.085Z,0.73
2023-02-03T09:06:11.560Z,0.90
2023-02-03T09:08:37.974Z,1.02
2023-02-03T09:11:17.791Z,1.35
2023-02-03T09:13:45.944Z,1.27
2023-02-03T09:16:14.459Z,0.70
2023-02-03T09:18:40.930Z,1.27
2023-02-03T09:21:13.880Z,0.80
2023-02-03T09:23:47.385Z,1.15
2023-02-03T09:26:15.149Z,0.70
2023-02-03T09:28:41.753Z,0.90
2023-02-03T09:31:14.342Z,1.52
2023-02-03T09:33:41.054Z,6.15
2023-02-03T09:36:07.989Z,1.30
2023-02-03T09:38:35.181Z,1.05
2023-02-03T09:41:12.008Z,0.73
2023-02-03T09:43:56.753Z,1.27
2023-02-03T09:46:29.991Z,1.77
2023-02-03T09:49:00.949Z,0.60
2023-02-03T09:51:37.339Z,0.93
2023-02-03T09:54:13.494Z,0.90
2023-02-03T09:56:40.815Z,1.98
2023-02-03T09:59:10.015Z,0.93
2023-02-03T10:01:56.441Z,1.00
2023-02-03T10:04:39.763Z,1.10
2023-02-03T10:07:09.176Z,0.80
2023-02-03T10:10:07.580Z,0.82
2023-02-03T10:13:07.914Z,0.88
2023-02-03T10:15:43.385Z,0.80
2023-02-03T10:18:14.609Z,0.73
2023-02-03T10:20:46.785Z,0.80
2023-02-03T10:23:17.900Z,0.70
2023-02-03T10:25:57.183Z,0.82
2023-02-03T10:28:27.915Z,0.73
2023-02-03T10:30:59.835Z,0.73
2023-02-03T10:33:28.850Z,0.93
2023-02-03T10:36:09.913Z,0.60
2023-02-03T10:38:48.583Z,0.75
2023-02-03T10:41:17.740Z,0.90
2023-02-03T10:43:47.245Z,1.33
2023-02-03T10:46:15.356Z,1.20
2023-02-03T10:48:42.611Z,0.90
2023-02-03T10:51:22.825Z,0.50
2023-02-03T10:53:52.792Z,0.73
2023-02-03T10:56:24.438Z,0.82
2023-02-03T10:58:57.030Z,1.02
2023-02-03T11:01:27.620Z,0.70
2023-02-03T11:04:00.231Z,0.57
2023-02-03T11:06:27.639Z,1.50
2023-02-03T11:08:54.864Z,0.70
2023-02-03T11:11:24.968Z,0.47
2023-02-03T11:14:03.738Z,0.52
2023-02-03T11:16:37.839Z,0.82
2023-02-03T11:19:13.308Z,0.77
2023-02-03T11:21:39.625Z,1.10
2023-02-03T11:24:14.943Z,1.05
2023-02-03T11:27:05.908Z,0.70
2023-02-03T11:29:43.371Z,1.20
2023-02-03T11:32:23.581Z,0.63
2023-02-03T11:34:58.405Z,0.57
2023-02-03T11:37:31.063Z,0.88
2023-02-03T11:40:12.450Z,0.73
2023-02-03T11:42:41.992Z,0.55
2023-02-03T11:45:17.380Z,1.00
2023-02-03T11:48:16.491Z,0.60
2023-02-03T11:50:55.152Z,0.45
2023-02-03T11:53:56.928Z,0.85
2023-02-03T11:56:56.785Z,0.50
2023-02-03T11:59:33.226Z,0.88
2023-02-03T12:02:05.542Z,1.90
2023-02-03T12:04:50.289Z,0.60
2023-02-03T12:07:41.791Z,0.52
2023-02-03T12:10:42.068Z,0.68
2023-02-03T12:13:39.252Z,1.13
2023-02-03T12:16:40.494Z,0.57
2023-02-03T12:19:36.543Z,0.52
2023-02-03T12:22:22.092Z,1.15
2023-02-03T12:24:55.103Z,0.60
2023-02-03T12:30:22.601Z,1.00
2023-02-03T12:32:53.866Z,0.80
2023-02-03T12:35:50.099Z,0.73
2023-02-03T12:38:21.592Z,1.00
2023-02-03T12:40:57.838Z,0.90
2023-02-03T12:43:37.460Z,1.00
2023-02-03T12:46:22.821Z,0.40
2023-02-03T12:48:51.973Z,0.85
2023-02-03T12:51:30.948Z,1.58
2023-02-03T12:54:04.690Z,0.70
2023-02-03T12:56:39.889Z,1.58
2023-02-03T12:59:15.817Z,0.45
2023-02-03T13:02:18.006Z,0.40
2023-02-03T13:04:57.063Z,0.50
2023-02-03T13:07:32.447Z,0.88
2023-02-03T13:10:17.480Z,0.50
2023-02-03T13:12:49.673Z,0.70
2023-02-03T13:15:28.737Z,0.88
2023-02-03T13:18:05.178Z,0.60
2023-02-03T13:20:35.887Z,1.48
2023-02-03T13:23:11.092Z,0.63
2023-02-03T13:25:49.904Z,0.63
2023-02-03T13:28:35.265Z,0.80
2023-02-03T13:31:21.975Z,0.50
2023-02-03T13:34:24.795Z,0.63
2023-02-03T13:37:21.536Z,0.70
2023-02-03T13:40:09.297Z,0.43
2023-02-03T13:42:42.080Z,0.32
2023-02-03T13:45:28.921Z,0.50
2023-02-03T13:47:59.481Z,0.40
2023-02-03T13:50:30.067Z,0.40
2023-02-03T13:53:02.426Z,0.57
2023-02-03T13:56:02.553Z,0.30
2023-02-03T13:58:35.879Z,0.50
2023-02-03T14:01:37.082Z,0.43
2023-02-03T14:04:06.224Z,3.15
2023-02-03T14:06:36.209Z,0.77
2023-02-03T14:09:20.073Z,0.60
2023-02-03T14:11:49.080Z,0.38
2023-02-03T14:14:15.524Z,0.30
2023-02-03T14:16:51.970Z,0.40
2023-02-03T14:19:22.819Z,0.30
2023-02-03T14:21:54.120Z,0.52
2023-02-03T14:24:22.186Z,1.00
2023-02-03T14:26:52.451Z,1.10
2023-02-03T14:29:36.449Z,0.77
2023-02-03T14:32:05.540Z,0.68
2023-02-03T14:34:34.411Z,0.80
2023-02-03T14:37:30.660Z,0.45
2023-02-03T14:39:57.174Z,0.68
2023-02-03T14:42:56.074Z,1.23
2023-02-03T14:45:39.195Z,0.47
2023-02-03T14:48:34.263Z,0.60
2023-02-03T14:51:11.267Z,0.85
2023-02-03T14:53:54.767Z,0.75
2023-02-03T14:56:58.846Z,1.00
2023-02-03T14:59:42.814Z,0.40
2023-02-03T15:02:14.901Z,0.52
2023-02-03T15:04:42.532Z,0.80
2023-02-03T15:07:09.021Z,0.70
2023-02-03T15:09:54.080Z,0.38
2023-02-03T15:12:26.560Z,0.43
2023-02-03T15:14:53.651Z,0.32
2023-02-03T15:17:26.267Z,0.38
2023-02-03T15:19:53.475Z,1.23
2023-02-03T15:22:30.248Z,1.23
2023-02-03T15:24:59.715Z,0.40
2023-02-03T15:27:30.104Z,0.70
2023-02-03T15:30:01.973Z,0.63
2023-02-03T15:32:37.678Z,0.50
2023-02-03T15:35:13.278Z,0.50
2023-02-03T15:37:48.827Z,0.57
2023-02-03T15:40:19.827Z,0.57
2023-02-03T15:43:14.650Z,0.70
2023-02-03T15:46:00.023Z,0.60
2023-02-03T15:48:41.932Z,0.77
2023-02-03T15:51:08.410Z,0.60
2023-02-03T15:53:59.694Z,0.80
2023-02-03T15:56:38.640Z,0.95
2023-02-03T15:59:06.287Z,1.50
2023-02-03T16:01:33.087Z,0.88
2023-02-03T16:04:00.055Z,0.38
2023-02-03T16:06:38.209Z,0.70
2023-02-03T16:09:07.049Z,0.80
2023-02-03T16:11:38.728Z,0.70
2023-02-03T16:14:11.847Z,1.40
2023-02-03T16:19:15.302Z,0.82
2023-02-03T16:21:52.805Z,0.60
2023-02-03T16:24:45.927Z,1.50
2023-02-03T16:27:27.413Z,2.08
2023-02-03T16:30:33.709Z,1.00
2023-02-03T16:33:21.531Z,1.10
2023-02-03T16:36:06.626Z,0.95
2023-02-03T16:38:51.500Z,1.10
2023-02-03T16:41:36.412Z,0.95
2023-02-03T16:44:21.335Z,1.10
2023-02-03T16:47:07.869Z,1.42
2023-02-03T16:49:52.713Z,4.15
2023-02-03T16:52:19.120Z,2.30
2023-02-03T16:54:45.569Z,1.70
2023-02-03T16:57:12.000Z,1.73
2023-02-03T16:59:38.407Z,1.40
2023-02-03T17:02:04.927Z,3.53
2023-02-03T17:04:31.307Z,1.63
2023-02-03T17:06:57.708Z,1.65
2023-02-03T17:09:24.937Z,1.35
2023-02-03T17:11:51.370Z,1.35
2023-02-03T17:14:17.758Z,1.50
2023-02-03T17:16:44.231Z,1.40
2023-02-03T17:19:15.040Z,1.48
2023-02-03T17:21:41.674Z,1.88
2023-02-03T17:24:08.020Z,2.88
2023-02-03T17:26:35.197Z,1.83
2023-02-03T17:29:03.226Z,2.33
2023-02-03T17:31:30.900Z,2.40
2023-02-03T17:33:58.572Z,2.10
2023-02-03T17:36:25.139Z,1.70
2023-02-03T17:55:23.465Z,2.90
2023-02-03T17:57:50.399Z,1.95
2023-02-03T18:00:17.452Z,2.10
2023-02-03T18:02:44.136Z,3.55
2023-02-03T18:05:10.844Z,2.30
2023-02-03T18:07:37.206Z,2.97
2023-02-03T18:10:04.386Z,2.58
2023-02-03T18:12:30.774Z,2.45
2023-02-03T18:14:57.893Z,3.33
2023-02-03T18:17:24.400Z,2.83
2023-02-03T18:19:55.855Z,3.50
2023-02-03T18:22:26.005Z,3.05
2023-02-03T18:24:52.705Z,3.35
2023-02-03T18:27:19.622Z,3.17
2023-02-03T18:29:47.607Z,3.15
2023-02-03T18:32:15.718Z,3.70
2023-02-03T18:34:42.240Z,4.28
2023-02-03T18:37:08.657Z,3.78
2023-02-03T18:39:35.215Z,3.22
2023-02-03T18:42:02.993Z,3.63
2023-02-03T18:44:29.523Z,3.40
2023-02-03T18:46:57.003Z,3.13
2023-02-03T18:49:23.424Z,3.47
2023-02-03T18:51:49.806Z,3.70
2023-02-03T18:54:16.198Z,3.03
2023-02-03T18:56:42.576Z,3.30
2023-02-03T18:59:10.888Z,2.83
2023-02-03T19:01:39.007Z,2.85
2023-02-03T19:04:06.297Z,3.17
2023-02-03T19:06:34.188Z,2.83
2023-02-03T19:09:00.752Z,3.63
2023-02-03T19:11:27.245Z,3.22
2023-02-03T19:13:53.764Z,2.63
2023-02-03T19:16:20.274Z,3.80
2023-02-03T19:18:47.493Z,3.20
2023-02-03T19:21:14.268Z,2.72
2023-02-03T19:23:41.615Z,2.63
2023-02-03T19:26:09.832Z,2.50
2023-02-03T19:28:36.658Z,3.17
2023-02-03T19:31:15.223Z,4.30
2023-02-03T19:33:42.199Z,2.45
2023-02-03T19:36:09.699Z,4.28
2023-02-03T19:38:36.837Z,2.72
2023-02-03T19:41:03.799Z,2.80
2023-02-03T19:43:31.314Z,2.85
2023-02-03T19:45:58.069Z,3.08
2023-02-03T19:48:24.573Z,2.65
2023-02-03T19:50:51.036Z,3.13
2023-02-03T19:53:18.339Z,3.20
2023-02-03T19:55:46.127Z,2.90
2023-02-03T19:58:14.490Z,3.33
2023-02-03T20:00:42.117Z,3.05
2023-02-03T20:03:09.337Z,3.42
2023-02-03T20:05:37.534Z,2.53
2023-02-03T20:08:04.495Z,3.88
2023-02-03T20:10:32.554Z,3.05
2023-02-03T20:12:59.250Z,3.58
2023-02-03T20:15:25.694Z,2.63
2023-02-03T20:17:52.254Z,3.78
2023-02-03T20:20:20.610Z,2.90
2023-02-03T20:22:47.364Z,3.78
2023-02-03T20:25:13.816Z,4.72
2023-02-03T20:27:40.706Z,3.53
2023-02-03T20:30:07.668Z,3.30
2023-02-03T20:32:34.172Z,3.38
2023-02-03T20:35:00.627Z,3.78
2023-02-03T20:37:27.243Z,2.78
2023-02-03T20:39:53.894Z,2.58
2023-02-03T20:42:20.874Z,3.00
2023-02-03T20:44:47.530Z,2.97
2023-02-03T20:47:18.375Z,4.00
2023-02-03T20:49:45.781Z,3.20
2023-02-03T20:52:17.963Z,3.35
2023-02-03T20:54:44.481Z,3.22
2023-02-03T20:57:16.448Z,3.88
2023-02-03T20:59:44.495Z,4.47
2023-02-03T21:02:51.766Z,3.45
2023-02-03T21:05:24.765Z,3.35
2023-02-03T21:07:52.016Z,2.85
2023-02-03T21:10:20.796Z,2.53
2023-02-03T21:12:48.314Z,2.65
2023-02-03T21:15:26.368Z,3.55
2023-02-03T21:17:53.434Z,3.80
2023-02-03T21:20:26.406Z,3.70
2023-02-03T21:22:53.293Z,3.58
2023-02-03T21:25:28.765Z,3.50
2023-02-03T21:27:58.138Z,3.17
2023-02-03T21:30:32.996Z,6.22
2023-02-03T21:33:06.509Z,5.45
2023-02-03T21:38:32.999Z,3.58
2023-02-03T21:41:01.108Z,3.13
2023-02-03T21:43:29.362Z,3.70
2023-02-03T21:45:56.166Z,3.47
2023-02-03T21:48:25.714Z,3.28
2023-02-03T21:50:54.623Z,3.55
2023-02-03T21:53:25.858Z,4.88
2023-02-03T21:55:52.288Z,3.65
2023-02-03T21:58:31.355Z,3.53
2023-02-03T22:01:03.573Z,3.80
2023-02-03T22:03:33.570Z,2.78
2023-02-03T22:06:08.778Z,3.65
2023-02-03T22:08:43.939Z,4.13
2023-02-03T22:11:10.780Z,4.22
2023-02-03T22:13:37.425Z,5.07
2023-02-03T22:16:04.511Z,5.10
2023-02-03T22:18:31.052Z,3.10
2023-02-03T22:20:57.769Z,4.25
2023-02-03T22:23:24.178Z,4.10
2023-02-03T22:25:50.637Z,4.07
2023-02-03T22:28:17.252Z,4.05
2023-02-03T22:30:43.709Z,3.78
2023-02-03T22:33:10.198Z,4.22
2023-02-03T22:35:36.563Z,3.55
2023-02-03T22:38:03.009Z,5.55
2023-02-03T22:40:29.659Z,6.20
2023-02-03T22:42:56.424Z,4.45
2023-02-03T22:45:23.175Z,4.40
2023-02-03T22:47:49.607Z,4.68
2023-02-03T22:50:17.496Z,4.13
2023-02-03T22:52:46.867Z,3.65
2023-02-03T22:55:13.316Z,3.13
2023-02-03T22:57:41.064Z,3.80
2023-02-03T23:00:11.888Z,4.82
2023-02-03T23:02:41.391Z,3.30
2023-02-03T23:05:09.303Z,2.92
2023-02-03T23:07:37.072Z,4.13
2023-02-03T23:10:05.007Z,3.08
2023-02-03T23:12:31.556Z,3.80
2023-02-03T23:14:58.003Z,4.28
2023-02-03T23:17:24.484Z,4.55
2023-02-03T23:19:50.986Z,3.42
2023-02-03T23:22:17.412Z,3.58
2023-02-03T23:24:43.886Z,3.58
2023-02-03T23:27:10.544Z,3.72
2023-02-03T23:29:38.111Z,2.80
2023-02-03T23:32:05.884Z,3.38
2023-02-03T23:34:51.662Z,2.90
2023-02-03T23:37:18.891Z,3.58
2023-02-03T23:39:45.340Z,2.85
2023-02-03T23:42:11.716Z,2.88
2023-02-03T23:44:38.085Z,3.85
2023-02-03T23:47:05.236Z,2.67
2023-02-03T23:49:31.805Z,2.78
2023-02-03T23:51:58.613Z,2.65
2023-02-03T23:54:25.395Z,3.38
2023-02-03T23:56:52.629Z,4.05
2023-02-03T23:59:19.579Z,2.63
